Terminal Aerodrome Forecast
Issued by NWS Wilmington, OH

Current Version | Previous Version | Graphics & Text | Print | Product List | Glossary On
Versions: 1 2 3 4 5 6 7 8 9 10 11 12 13 14 15 16 17 18 19
000
FTUS41 KILN 131700
TAFILN
TAF
KILN 131740Z 1318/1418 20023G33KT P6SM FEW040 BKN200
     FM132300 19015G23KT P6SM FEW050 BKN150
     FM141100 20018G28KT P6SM VCSH SCT050 OVC100
     FM141300 20022G37KT P6SM -SHRA SCT035 OVC080=

USA.gov is the U.S. government's official web portal to all federal, state and local government web resources and services.